Time;durP1;ratioP1;P1;durP2;ratioP2;P2;SDS_P1;SDS_P2;PMS_P1;PMS_P2;Temp;Humidity;BMP_temperature;BMP_pressure;BME280_temperature;BME280_humidity;BME280_pressure;Samples;Min_cycle;Max_cycle;Signal;HPM_P1;HPM_P2
2021/08/11 00:00:09;;;;;;;10.32;5.25;;;;;;;22.24;69.32;100206.38;5116828;28;20400;-71
2021/08/11 00:02:39;;;;;;;8.75;5.00;;;;;;;22.00;70.66;100204.44;5117006;28;20481;-70
2021/08/11 00:05:11;;;;;;;12.63;5.53;;;;;;;21.95;71.01;100217.69;5116789;28;20089;-70
2021/08/11 00:07:39;;;;;;;10.07;5.38;;;;;;;21.70;72.45;100204.03;5116376;28;20093;-71
2021/08/11 00:10:09;;;;;;;8.15;5.40;;;;;;;21.61;73.00;100210.44;5116803;28;20043;-70
2021/08/11 00:12:37;;;;;;;9.25;5.18;;;;;;;21.66;72.84;100221.66;5116580;28;20485;-70
2021/08/11 00:15:06;;;;;;;11.48;5.40;;;;;;;21.71;72.35;100222.03;5116433;27;20048;-70
2021/08/11 00:17:35;;;;;;;12.77;5.85;;;;;;;21.63;72.71;100213.00;5116005;28;20100;-70
2021/08/11 00:20:06;;;;;;;11.85;5.60;;;;;;;21.75;71.72;100208.13;5115360;28;20056;-70
2021/08/11 00:22:34;;;;;;;11.93;5.60;;;;;;;21.67;71.71;100208.94;5116744;28;20078;-70
2021/08/11 00:25:03;;;;;;;12.18;5.22;;;;;;;21.68;71.66;100200.63;5116129;28;20146;-70
2021/08/11 00:27:31;;;;;;;10.32;5.63;;;;;;;21.68;71.41;100206.06;5116511;28;20039;-70
2021/08/11 00:30:01;;;;;;;10.77;5.45;;;;;;;21.76;71.14;100207.94;5115997;28;20516;-70
2021/08/11 00:32:29;;;;;;;9.05;5.20;;;;;;;21.71;71.45;100205.75;5116208;28;20503;-70
2021/08/11 00:34:57;;;;;;;11.45;5.20;;;;;;;21.70;71.53;100209.44;5116020;28;20127;-71
2021/08/11 00:37:27;;;;;;;12.18;5.78;;;;;;;21.61;72.12;100213.16;5116156;28;20447;-70
2021/08/11 00:39:58;;;;;;;9.93;5.75;;;;;;;21.53;72.52;100218.56;5115778;27;20484;-71
2021/08/11 00:42:27;;;;;;;10.98;5.75;;;;;;;21.41;73.33;100211.72;5115939;28;20101;-71
2021/08/11 00:44:55;;;;;;;10.48;5.82;;;;;;;21.32;74.03;100218.13;5115860;28;20438;-70
2021/08/11 00:47:29;;;;;;;9.50;6.05;;;;;;;21.30;74.20;100228.28;5115666;28;20045;-70
2021/08/11 00:49:58;;;;;;;8.60;4.90;;;;;;;21.36;74.69;100227.66;5115901;28;20035;-70
2021/08/11 00:52:27;;;;;;;9.93;5.20;;;;;;;21.35;73.92;100228.66;5114676;28;20035;-70
2021/08/11 00:54:56;;;;;;;10.57;5.38;;;;;;;21.28;73.20;100238.44;5115493;28;20071;-71
2021/08/11 00:57:27;;;;;;;13.35;6.15;;;;;;;21.24;73.24;100228.91;5115959;28;20377;-71
2021/08/11 00:59:57;;;;;;;11.77;5.90;;;;;;;21.25;73.39;100230.63;5115707;28;20096;-70
2021/08/11 01:02:26;;;;;;;10.38;5.90;;;;;;;20.96;74.03;100231.81;5115759;28;20047;-70
2021/08/11 01:04:59;;;;;;;12.55;6.22;;;;;;;20.82;75.44;100235.06;5115352;28;20047;-70
2021/08/11 01:07:29;;;;;;;10.63;5.78;;;;;;;20.98;74.76;100229.78;5115416;28;20035;-71
2021/08/11 01:09:58;;;;;;;9.95;5.60;;;;;;;20.76;75.67;100236.56;5115170;28;20385;-70
2021/08/11 01:12:28;;;;;;;11.45;6.18;;;;;;;20.76;75.25;100236.56;5115612;28;20047;-70
2021/08/11 01:14:57;;;;;;;13.13;5.63;;;;;;;20.72;75.95;100232.47;5115260;28;20381;-71
2021/08/11 01:17:28;;;;;;;10.35;5.00;;;;;;;20.91;74.70;100228.69;5115189;27;20044;-70
2021/08/11 01:19:57;;;;;;;11.07;5.40;;;;;;;21.05;73.97;100230.00;5115031;28;20381;-71
2021/08/11 01:22:32;;;;;;;10.02;5.43;;;;;;;20.98;74.02;100229.78;5115393;28;20040;-70
2021/08/11 01:25:07;;;;;;;13.38;5.40;;;;;;;20.99;74.00;100236.91;5115191;28;20123;-70
2021/08/11 01:27:52;;;;;;;10.25;5.40;;;;;;;20.98;74.26;100234.34;5115337;28;20047;-70
2021/08/11 01:30:25;;;;;;;9.50;5.20;;;;;;;20.93;74.77;100232.09;5115111;28;20044;-71
2021/08/11 01:33:18;;;;;;;12.57;5.70;;;;;;;20.84;75.30;100227.63;5114910;28;20047;-70
2021/08/11 01:35:54;;;;;;;11.55;5.35;;;;;;;20.82;75.34;100229.66;5114893;28;20489;-71
2021/08/11 01:38:23;;;;;;;10.52;5.43;;;;;;;20.62;76.26;100228.16;5114966;28;20036;-70
2021/08/11 01:40:57;;;;;;;8.63;5.38;;;;;;;20.76;75.50;100223.03;5114507;28;20051;-71
2021/08/11 01:43:30;;;;;;;13.77;5.47;;;;;;;20.62;76.57;100223.59;5115089;28;20043;-70
2021/08/11 01:45:58;;;;;;;;;;;;;;;20.64;76.85;100223.41;5113694;28;20051;-70
2021/08/11 01:48:31;;;;;;;9.43;4.90;;;;;;;20.58;76.92;100223.06;5114793;28;20372;-70
2021/08/11 01:50:59;;;;;;;8.97;5.20;;;;;;;20.37;78.25;100225.22;5114442;28;20139;-70
2021/08/11 01:53:31;;;;;;;9.40;5.25;;;;;;;20.51;77.52;100215.72;5114402;28;20130;-70
2021/08/11 01:56:00;;;;;;;12.07;5.80;;;;;;;20.46;77.78;100218.91;5114335;28;20044;-70
2021/08/11 01:58:31;;;;;;;9.90;5.68;;;;;;;20.45;77.90;100228.00;5114580;28;20131;-70
2021/08/11 02:01:01;;;;;;;10.52;5.55;;;;;;;20.29;79.26;100220.56;5114386;28;20046;-70
2021/08/11 02:03:32;;;;;;;14.10;6.10;;;;;;;20.27;79.57;100221.75;5114240;28;20113;-71
2021/08/11 02:06:01;;;;;;;11.68;5.30;;;;;;;20.36;79.46;100226.19;5112736;28;20055;-70
2021/08/11 02:08:30;;;;;;;10.13;5.47;;;;;;;20.34;79.30;100225.50;5114601;28;20054;-70
2021/08/11 02:11:01;;;;;;;10.23;5.25;;;;;;;20.36;79.59;100222.63;5114159;28;20040;-71
2021/08/11 02:13:29;;;;;;;10.88;5.47;;;;;;;20.38;80.35;100228.78;5113070;28;20043;-70
2021/08/11 02:15:57;;;;;;;8.80;5.63;;;;;;;20.47;79.86;100228.72;5112992;28;20473;-70
2021/08/11 02:18:28;;;;;;;9.07;5.32;;;;;;;20.50;79.83;100219.44;5114244;28;20131;-70
2021/08/11 02:20:57;;;;;;;8.93;5.10;;;;;;;20.42;80.50;100222.88;5114092;28;20071;-70
2021/08/11 02:23:26;;;;;;;9.90;5.07;;;;;;;20.52;79.85;100207.41;5114237;28;20407;-71
2021/08/11 02:26:00;;;;;;;9.85;5.32;;;;;;;20.61;79.80;100215.63;5113829;28;20123;-71
2021/08/11 02:28:35;;;;;;;9.70;5.43;;;;;;;20.58;80.23;100217.63;5114080;27;20093;-70
2021/08/11 02:31:10;;;;;;;10.93;5.60;;;;;;;20.63;79.57;100224.44;5113697;28;20088;-71
2021/08/11 02:33:45;;;;;;;8.43;5.32;;;;;;;20.61;79.88;100227.31;5114033;28;20043;-70
2021/08/11 02:36:22;;;;;;;10.07;5.45;;;;;;;20.63;79.87;100224.44;5114312;28;20047;-70
2021/08/11 02:38:54;;;;;;;8.73;5.13;;;;;;;20.55;80.00;100222.50;5113587;28;20065;-71
2021/08/11 02:41:27;;;;;;;10.90;5.60;;;;;;;20.47;80.82;100215.19;5113815;28;20050;-70
2021/08/11 02:44:00;;;;;;;8.68;5.57;;;;;;;20.46;80.69;100209.88;5113831;28;20051;-70
2021/08/11 02:46:33;;;;;;;12.68;5.55;;;;;;;20.41;81.26;100213.06;5113714;28;20040;-70
2021/08/11 02:49:06;;;;;;;9.02;5.72;;;;;;;20.60;80.07;100213.91;5112188;28;20059;-71
2021/08/11 02:51:38;;;;;;;9.75;5.88;;;;;;;20.60;80.02;100216.63;5113688;28;20404;-71
2021/08/11 02:54:10;;;;;;;10.93;5.53;;;;;;;20.51;80.25;100211.13;5113460;28;20044;-71
2021/08/11 02:56:40;;;;;;;10.27;5.72;;;;;;;20.56;80.38;100218.81;5113813;28;20049;-70
2021/08/11 02:59:12;;;;;;;9.43;5.38;;;;;;;20.49;80.26;100213.16;5113428;28;20044;-70
2021/08/11 03:01:40;;;;;;;9.13;5.88;;;;;;;20.52;80.57;100209.28;5113607;28;20496;-71
2021/08/11 03:04:13;;;;;;;8.43;5.40;;;;;;;20.46;81.46;100218.91;5113496;28;20051;-71
2021/08/11 03:06:43;;;;;;;12.02;5.80;;;;;;;20.43;82.10;100223.75;5113649;28;20469;-70
2021/08/11 03:09:11;;;;;;;10.35;5.10;;;;;;;20.69;79.87;100215.69;5111814;28;20048;-70
2021/08/11 03:11:42;;;;;;;9.70;5.60;;;;;;;20.52;80.78;100217.41;5113545;28;20036;-70
2021/08/11 03:14:14;;;;;;;10.68;5.22;;;;;;;20.43;81.27;100212.94;5113045;28;20047;-70
2021/08/11 03:16:42;;;;;;;10.27;5.38;;;;;;;20.43;81.05;100215.63;5114362;28;20648;-70
2021/08/11 03:19:10;;;;;;;10.90;5.65;;;;;;;20.63;80.13;100219.00;5117768;28;20394;-70
2021/08/11 03:21:39;;;;;;;9.27;5.30;;;;;;;20.73;79.19;100222.47;5117686;28;20043;-70
2021/08/11 03:24:08;;;;;;;9.23;5.53;;;;;;;20.65;79.74;100228.69;5117287;28;20081;-70
2021/08/11 03:26:37;;;;;;;8.40;5.00;;;;;;;20.55;80.15;100234.19;5117399;28;20047;-70
2021/08/11 03:29:05;;;;;;;10.68;5.28;;;;;;;20.53;80.37;100236.22;5117108;28;20048;-70
2021/08/11 03:31:33;;;;;;;9.20;5.55;;;;;;;20.52;80.75;100223.69;5117637;28;20044;-70
2021/08/11 03:34:01;;;;;;;10.88;5.38;;;;;;;20.57;80.59;100225.94;5117263;28;20042;-71
2021/08/11 03:36:29;;;;;;;11.13;6.30;;;;;;;20.66;79.57;100224.97;5117320;28;20503;-70
2021/08/11 03:38:58;;;;;;;9.93;5.13;;;;;;;20.49;80.92;100232.13;5117037;28;20048;-70
2021/08/11 03:41:27;;;;;;;11.30;5.60;;;;;;;20.39;81.75;100234.03;5117171;28;20043;-70
2021/08/11 03:43:55;;;;;;;9.25;5.82;;;;;;;20.48;81.15;100232.28;5116851;28;20389;-70
2021/08/11 03:46:24;;;;;;;7.30;5.18;;;;;;;20.58;80.26;100228.47;5117024;28;20076;-70
2021/08/11 03:48:52;;;;;;;10.40;5.45;;;;;;;20.55;80.34;100234.19;5116690;28;20043;-80
2021/08/11 03:51:21;;;;;;;9.52;5.32;;;;;;;20.64;80.11;100232.41;5117050;28;20515;-70
2021/08/11 03:53:49;;;;;;;12.52;6.00;;;;;;;20.69;79.77;100234.66;5116864;28;20373;-70
2021/08/11 03:56:17;;;;;;;9.20;5.70;;;;;;;20.57;80.36;100237.63;5116598;28;20423;-70
2021/08/11 03:58:47;;;;;;;11.10;6.10;;;;;;;20.64;79.74;100236.97;5117043;28;20123;-70
2021/08/11 04:01:15;;;;;;;11.85;5.85;;;;;;;20.80;79.25;100234.38;5116499;28;20039;-70
2021/08/11 04:03:45;;;;;;;10.75;6.00;;;;;;;20.71;79.75;100241.59;5116698;28;20484;-70
2021/08/11 04:06:14;;;;;;;13.13;6.35;;;;;;;20.55;80.66;100228.78;5116580;27;20117;-70
2021/08/11 04:08:42;;;;;;;12.25;6.40;;;;;;;20.62;80.53;100239.00;5116529;28;20473;-71
2021/08/11 04:11:10;;;;;;;10.43;5.88;;;;;;;20.62;80.80;100252.53;5115188;28;20043;-71
2021/08/11 04:13:38;;;;;;;11.15;5.60;;;;;;;20.69;80.65;100251.75;5116772;28;20100;-70
2021/08/11 04:16:08;;;;;;;11.23;5.85;;;;;;;20.63;80.97;100246.97;5116458;28;20039;-71
2021/08/11 04:18:37;;;;;;;11.65;6.40;;;;;;;20.77;80.57;100253.69;5116598;28;20450;-70
2021/08/11 04:21:05;;;;;;;9.00;5.97;;;;;;;20.83;80.12;100256.59;5116235;28;20040;-71
2021/08/11 04:23:33;;;;;;;13.30;5.78;;;;;;;20.82;80.63;100254.91;5116524;28;20044;-70
2021/08/11 04:26:02;;;;;;;9.52;5.60;;;;;;;20.67;81.23;100259.19;5116207;27;20472;-71
2021/08/11 04:28:31;;;;;;;11.70;5.88;;;;;;;20.75;80.95;100255.69;5116213;28;20146;-70
2021/08/11 04:30:59;;;;;;;10.70;6.00;;;;;;;20.91;79.80;100254.97;5116040;28;20044;-70
2021/08/11 04:33:29;;;;;;;10.80;6.03;;;;;;;20.99;79.45;100263.16;5116096;28;20047;-70
2021/08/11 04:35:58;;;;;;;10.05;6.35;;;;;;;21.23;78.46;100259.75;5115636;28;20054;-71
2021/08/11 04:38:26;;;;;;;11.40;5.93;;;;;;;21.69;76.05;100255.75;5116174;28;20092;-70
2021/08/11 04:40:54;;;;;;;13.07;6.00;;;;;;;22.09;73.97;100256.94;5114801;28;20052;-70
2021/08/11 04:43:22;;;;;;;8.77;5.57;;;;;;;22.56;71.09;100243.56;5115955;28;20500;-70
2021/08/11 04:45:51;;;;;;;11.48;5.28;;;;;;;22.55;71.12;100252.75;5116180;28;20415;-70
2021/08/11 04:48:19;;;;;;;10.70;5.57;;;;;;;22.69;70.93;100254.81;5115436;28;20485;-71
2021/08/11 04:50:48;;;;;;;9.85;5.22;;;;;;;22.99;68.66;100261.44;5116193;28;20065;-70
2021/08/11 04:53:16;;;;;;;11.40;5.72;;;;;;;22.78;69.62;100256.50;5115669;28;20543;-70
2021/08/11 04:55:45;;;;;;;10.38;5.50;;;;;;;23.54;67.31;100260.59;5115655;28;20040;-71
2021/08/11 04:58:13;;;;;;;10.75;4.88;;;;;;;23.73;64.87;100259.38;5115597;28;20040;-71
2021/08/11 05:00:41;;;;;;;8.90;4.90;;;;;;;23.05;67.26;100276.22;5115381;28;20507;-71
2021/08/11 05:03:09;;;;;;;7.13;4.78;;;;;;;23.17;67.43;100263.97;5115395;28;20036;-71
2021/08/11 05:05:42;;;;;;;12.90;5.85;;;;;;;23.02;68.27;100266.53;5115496;28;20404;-70
2021/08/11 05:08:12;;;;;;;10.18;4.95;;;;;;;23.16;68.10;100262.25;5114128;28;20065;-71
2021/08/11 05:10:40;;;;;;;10.52;5.13;;;;;;;23.37;67.46;100262.56;5115417;28;20070;-70
2021/08/11 05:13:13;;;;;;;9.00;5.38;;;;;;;23.45;66.95;100274.41;5115106;28;20437;-71
2021/08/11 05:15:41;;;;;;;11.63;5.20;;;;;;;23.37;67.27;100258.97;5115527;28;20074;-70
2021/08/11 05:18:11;;;;;;;12.02;5.03;;;;;;;23.24;66.80;100264.94;5114988;28;20549;-71
2021/08/11 05:20:40;;;;;;;9.73;4.70;;;;;;;23.13;65.51;100262.59;5115485;28;20122;-70
2021/08/11 05:23:08;;;;;;;9.48;5.07;;;;;;;23.14;66.52;100267.00;5114846;28;20052;-70
2021/08/11 05:25:38;;;;;;;8.55;5.10;;;;;;;23.20;66.22;100274.50;5115124;28;20404;-71
2021/08/11 05:28:06;;;;;;;8.70;4.78;;;;;;;23.27;65.94;100280.94;5114751;28;20100;-71
2021/08/11 05:30:36;;;;;;;8.82;4.55;;;;;;;23.48;65.26;100272.22;5115054;28;20468;-71
2021/08/11 05:33:04;;;;;;;10.35;4.72;;;;;;;23.53;65.58;100280.69;5114986;28;20092;-71
2021/08/11 05:35:32;;;;;;;9.23;4.78;;;;;;;23.66;65.32;100281.03;5114774;28;20492;-71
2021/08/11 05:38:01;;;;;;;9.65;4.90;;;;;;;23.80;63.95;100289.47;5114418;27;20074;-72
2021/08/11 05:40:29;;;;;;;8.30;5.07;;;;;;;24.26;62.55;100284.97;5114466;28;20043;-71
2021/08/11 05:42:58;;;;;;;10.43;5.22;;;;;;;24.20;62.23;100282.97;5115055;28;20123;-70
2021/08/11 05:45:27;;;;;;;9.32;5.03;;;;;;;24.55;61.27;100296.06;5114765;28;20035;-71
2021/08/11 05:47:55;;;;;;;10.05;4.82;;;;;;;25.20;58.86;100288.38;5114598;28;20054;-71
2021/08/11 05:50:24;;;;;;;10.77;4.72;;;;;;;25.97;56.73;100286.13;5114304;28;20429;-70
2021/08/11 05:52:52;;;;;;;8.60;4.63;;;;;;;26.22;55.16;100287.47;5114528;28;20040;-71
2021/08/11 05:55:21;;;;;;;9.68;4.50;;;;;;;25.14;58.15;100289.97;5114349;28;20047;-71
2021/08/11 05:57:49;;;;;;;7.85;4.57;;;;;;;25.20;58.26;100296.56;5114366;28;20044;-71
2021/08/11 06:00:19;;;;;;;7.13;4.03;;;;;;;24.87;58.73;100296.81;5114418;28;20438;-71
2021/08/11 06:02:47;;;;;;;7.60;4.43;;;;;;;25.59;57.62;100291.69;5114315;28;20133;-70
2021/08/11 06:05:17;;;;;;;10.50;4.57;;;;;;;25.84;56.94;100288.69;5114222;28;20044;-71
2021/08/11 06:07:45;;;;;;;9.85;4.30;;;;;;;26.18;55.49;100288.91;5114379;28;20047;-71
2021/08/11 06:10:13;;;;;;;8.52;4.45;;;;;;;26.29;53.06;100295.75;5114127;28;20051;-71
2021/08/11 06:12:41;;;;;;;7.50;3.78;;;;;;;26.56;52.99;100293.34;5114429;28;20075;-71
2021/08/11 06:15:10;;;;;;;7.60;4.25;;;;;;;26.32;53.70;100289.03;5113765;27;20036;-71
2021/08/11 06:17:48;;;;;;;7.65;4.05;;;;;;;26.51;53.25;100297.50;5113647;28;20154;-71
2021/08/11 06:20:19;;;;;;;11.27;4.20;;;;;;;26.74;52.68;100305.53;5114050;28;20118;-71
2021/08/11 06:22:47;;;;;;;6.53;4.20;;;;;;;26.79;52.77;100299.44;5114199;28;20063;-71
2021/08/11 06:25:16;;;;;;;7.90;4.13;;;;;;;26.82;53.35;100302.63;5113885;28;20464;-71
2021/08/11 06:27:45;;;;;;;8.55;4.15;;;;;;;26.93;53.23;100292.22;5113755;28;20043;-71
2021/08/11 06:30:15;;;;;;;8.10;4.35;;;;;;;27.26;52.78;100298.81;5113599;28;20130;-71
2021/08/11 06:32:43;;;;;;;7.80;4.28;;;;;;;27.38;52.31;100294.47;5113580;28;20046;-71
2021/08/11 06:35:13;;;;;;;11.02;4.60;;;;;;;27.62;50.96;100295.06;5113359;28;20050;-71
2021/08/11 06:37:47;;;;;;;7.57;4.40;;;;;;;28.14;50.70;100304.59;5114219;28;20118;-71
2021/08/11 06:40:16;;;;;;;9.00;4.32;;;;;;;28.18;50.12;100305.88;5113675;28;20088;-71
2021/08/11 06:42:44;;;;;;;8.05;4.60;;;;;;;28.46;49.61;100306.63;5113532;28;20048;-71
2021/08/11 06:45:16;;;;;;;10.07;4.40;;;;;;;28.48;49.27;100303.69;5113282;27;20043;-71
2021/08/11 06:47:44;;;;;;;8.25;4.00;;;;;;;28.02;50.52;100290.66;5113896;28;20131;-71
2021/08/11 06:50:15;;;;;;;10.52;4.20;;;;;;;27.89;51.23;100288.72;5112653;28;20073;-71
2021/08/11 06:52:43;;;;;;;7.72;4.10;;;;;;;27.22;52.48;100292.06;5113629;28;20065;-71
2021/08/11 06:55:14;;;;;;;11.73;3.92;;;;;;;26.76;54.28;100295.22;5113147;28;20141;-71
2021/08/11 06:57:44;;;;;;;9.98;4.35;;;;;;;27.24;52.76;100297.34;5113621;28;20042;-71
2021/08/11 07:00:13;;;;;;;8.27;4.07;;;;;;;28.05;51.10;100290.22;5113582;28;20044;-72
2021/08/11 07:02:42;;;;;;;8.50;4.00;;;;;;;28.19;50.62;100297.47;5113548;28;20050;-71
2021/08/11 07:05:12;;;;;;;8.70;4.10;;;;;;;28.02;50.59;100295.28;5113308;28;20046;-72
2021/08/11 07:07:43;;;;;;;9.02;3.97;;;;;;;28.06;51.43;100297.41;5113506;28;20047;-70
2021/08/11 07:10:12;;;;;;;9.20;3.85;;;;;;;28.10;50.04;100295.13;5112778;28;20105;-72
2021/08/11 07:12:41;;;;;;;7.38;4.13;;;;;;;27.85;50.62;100295.63;5113150;28;20474;-70
2021/08/11 07:15:13;;;;;;;10.13;4.15;;;;;;;27.99;51.09;100295.66;5112968;28;20044;-71
2021/08/11 07:17:52;;;;;;;7.97;4.18;;;;;;;27.93;50.46;100303.69;5113133;28;20075;-70
2021/08/11 07:20:20;;;;;;;11.13;4.05;;;;;;;27.85;50.27;100306.59;5113202;28;20051;-70
2021/08/11 07:22:50;;;;;;;9.50;4.00;;;;;;;27.86;51.48;100300.06;5113141;28;20040;-70
2021/08/11 07:25:19;;;;;;;8.10;3.97;;;;;;;27.95;51.11;100295.25;5113111;28;20480;-70
2021/08/11 07:27:48;;;;;;;11.80;4.00;;;;;;;27.83;51.91;100303.22;5112069;28;20051;-70
2021/08/11 07:30:17;;;;;;;7.82;4.03;;;;;;;27.94;51.07;100302.63;5112767;28;20489;-70
2021/08/11 07:32:46;;;;;;;9.18;3.90;;;;;;;27.79;51.48;100299.16;5113107;28;20052;-70
2021/08/11 07:35:16;;;;;;;7.80;3.67;;;;;;;27.66;50.18;100301.84;5112601;28;20044;-70
2021/08/11 07:37:46;;;;;;;6.93;3.53;;;;;;;27.51;50.73;100299.22;5112929;28;20047;-70
2021/08/11 07:40:16;;;;;;;8.25;3.55;;;;;;;27.45;49.97;100305.47;5112928;28;20093;-72
2021/08/11 07:42:45;;;;;;;8.48;3.70;;;;;;;27.44;50.11;100302.94;5113165;28;20548;-72
2021/08/11 07:45:15;;;;;;;8.15;3.60;;;;;;;27.46;49.58;100307.19;5112701;28;20039;-72
2021/08/11 07:47:46;;;;;;;6.90;3.80;;;;;;;27.61;48.71;100304.34;5112829;28;20408;-72
2021/08/11 07:50:17;;;;;;;11.20;3.92;;;;;;;27.49;48.78;100297.69;5113068;28;20082;-72
2021/08/11 07:52:46;;;;;;;9.48;3.92;;;;;;;27.45;48.46;100301.91;5113075;28;20446;-72
2021/08/11 07:55:17;;;;;;;9.10;3.95;;;;;;;27.59;49.20;100295.44;5113042;28;20389;-72
2021/08/11 07:57:46;;;;;;;8.48;3.90;;;;;;;27.73;49.09;100297.25;5112894;28;20043;-72
2021/08/11 08:00:16;;;;;;;7.10;3.78;;;;;;;27.72;48.07;100301.06;5112618;28;20131;-72
2021/08/11 08:02:44;;;;;;;6.43;3.80;;;;;;;27.72;46.21;100303.78;5113542;28;20043;-72
2021/08/11 08:05:13;;;;;;;6.97;3.67;;;;;;;27.76;47.53;100296.84;5116461;28;20047;-73
2021/08/11 08:07:41;;;;;;;9.32;3.83;;;;;;;27.76;47.70;100302.31;5116670;28;20039;-71
2021/08/11 08:10:10;;;;;;;8.38;3.63;;;;;;;27.89;46.88;100307.91;5116367;28;20454;-72
2021/08/11 08:12:43;;;;;;;6.38;3.05;;;;;;;27.76;43.44;100302.31;5116485;28;20084;-72
2021/08/11 08:15:12;;;;;;;8.30;3.65;;;;;;;27.68;45.33;100294.25;5116874;28;20043;-71
2021/08/11 08:17:43;;;;;;;8.10;3.58;;;;;;;27.95;43.96;100306.22;5116408;28;20454;-70
2021/08/11 08:20:16;;;;;;;5.38;3.10;;;;;;;28.02;43.08;100300.78;5116279;28;20071;-71
2021/08/11 08:22:46;;;;;;;7.43;3.72;;;;;;;27.89;43.56;100299.66;5116589;28;20067;-71
2021/08/11 08:25:20;;;;;;;6.65;3.40;;;;;;;27.89;44.23;100291.44;5116017;28;20126;-71
2021/08/11 08:27:51;;;;;;;5.68;3.28;;;;;;;28.04;44.61;100293.19;5116742;28;20096;-71
2021/08/11 08:30:40;;;;;;;5.53;3.15;;;;;;;28.17;41.97;100293.22;5116251;28;20073;-71
2021/08/11 08:33:08;;;;;;;5.10;2.97;;;;;;;28.26;41.93;100302.94;5116004;28;20079;-71
2021/08/11 08:35:36;;;;;;;10.23;4.10;;;;;;;28.20;41.78;100292.81;5115679;28;20048;-71
2021/08/11 08:38:05;;;;;;;7.63;3.53;;;;;;;28.28;39.83;100303.66;5115748;28;20473;-71
2021/08/11 08:40:35;;;;;;;7.30;3.40;;;;;;;28.28;40.40;100300.00;5115717;28;20044;-71
2021/08/11 08:43:07;;;;;;;6.50;3.72;;;;;;;28.32;40.56;100302.16;5116044;28;20050;-71
2021/08/11 08:45:36;;;;;;;7.32;3.80;;;;;;;28.43;39.18;100307.06;5115481;28;20044;-71
2021/08/11 08:48:05;;;;;;;7.00;3.63;;;;;;;28.31;39.66;100305.97;5115611;28;20047;-71
2021/08/11 08:50:33;;;;;;;8.25;4.10;;;;;;;28.25;40.38;100306.75;5115612;28;20499;-71
2021/08/11 08:53:04;;;;;;;8.30;3.58;;;;;;;28.21;40.95;100311.81;5114598;28;20066;-71
2021/08/11 08:55:32;;;;;;;6.13;3.40;;;;;;;28.30;40.65;100304.28;5115733;27;20046;-71
2021/08/11 08:58:02;;;;;;;5.55;3.10;;;;;;;28.31;40.36;100305.13;5115504;28;20070;-71
2021/08/11 09:00:34;;;;;;;5.72;3.38;;;;;;;28.45;40.38;100306.84;5115387;28;20104;-71
2021/08/11 09:03:04;;;;;;;6.18;3.60;;;;;;;28.49;40.11;100298.00;5115672;28;20043;-71
2021/08/11 09:05:32;;;;;;;9.30;3.50;;;;;;;28.58;40.56;100300.56;5115062;28;20464;-71
2021/08/11 09:08:01;;;;;;;6.20;3.40;;;;;;;28.75;40.85;100301.81;5115496;28;20048;-71
2021/08/11 09:10:32;;;;;;;5.80;3.42;;;;;;;28.96;40.51;100309.91;5115458;28;20048;-71
2021/08/11 09:13:08;;;;;;;6.72;3.30;;;;;;;28.91;39.82;100304.19;5113657;28;20135;-71
2021/08/11 09:15:40;;;;;;;7.65;3.17;;;;;;;28.90;39.50;100291.53;5114862;28;20134;-71
2021/08/11 09:18:15;;;;;;;6.63;3.65;;;;;;;29.15;39.91;100285.41;5115309;28;20433;-71
2021/08/11 09:20:45;;;;;;;5.50;3.03;;;;;;;29.13;36.97;100287.50;5115429;28;20495;-71
2021/08/11 09:23:15;;;;;;;6.28;3.00;;;;;;;29.19;37.42;100298.50;5115217;28;20452;-71
2021/08/11 09:26:00;;;;;;;4.45;2.60;;;;;;;29.07;36.15;100298.28;5115520;27;20047;-71
2021/08/11 09:28:31;;;;;;;4.85;2.55;;;;;;;29.11;36.06;100295.97;5115784;28;20404;-71
2021/08/11 09:33:59;;;;;;;4.90;2.75;;;;;;;29.24;35.62;100289.59;5152443;27;20351;-71
2021/08/11 09:36:39;;;;;;;5.45;2.90;;;;;;;29.26;36.55;100287.50;5131551;28;20058;-71
2021/08/11 09:39:08;;;;;;;4.65;2.92;;;;;;;29.43;36.77;100288.72;5131673;28;20043;-71
2021/08/11 09:41:36;;;;;;;5.32;3.00;;;;;;;29.14;36.92;100286.44;5131095;28;20042;-71
2021/08/11 09:44:08;;;;;;;5.40;3.13;;;;;;;29.13;37.28;100284.75;5131026;28;20043;-72
2021/08/11 09:46:37;;;;;;;6.05;2.90;;;;;;;29.24;37.14;100289.59;5130683;28;20370;-72
2021/08/11 09:49:18;;;;;;;4.90;3.10;;;;;;;29.23;36.75;100293.41;5131417;28;20127;-71
2021/08/11 09:51:58;;;;;;;7.32;3.30;;;;;;;29.23;37.07;100298.91;5130964;28;20065;-71
2021/08/11 09:54:28;;;;;;;5.13;3.00;;;;;;;29.16;36.65;100292.59;5130611;28;20104;-71
2021/08/11 09:56:59;;;;;;;6.00;2.70;;;;;;;29.17;36.81;100281.41;5131417;28;20089;-71
2021/08/11 09:59:28;;;;;;;4.43;2.65;;;;;;;29.33;36.49;100282.81;5130657;28;20074;-71
2021/08/11 10:02:16;;;;;;;5.28;2.92;;;;;;;29.32;36.63;100295.72;5130798;28;20043;-71
2021/08/11 10:04:46;;;;;;;6.47;3.00;;;;;;;29.41;36.42;100298.25;5131179;28;20061;-71
2021/08/11 10:07:14;;;;;;;6.03;3.03;;;;;;;29.46;36.04;100304.81;5130668;28;20108;-70
2021/08/11 10:09:43;;;;;;;4.60;2.78;;;;;;;29.55;36.75;100303.56;5130601;28;20039;-71
2021/08/11 10:12:28;;;;;;;5.20;2.95;;;;;;;29.50;37.21;100303.34;5130806;28;20127;-70
2021/08/11 10:14:58;;;;;;;5.10;3.08;;;;;;;29.75;35.71;100297.16;5130786;28;20047;-70
2021/08/11 10:17:34;;;;;;;4.10;2.50;;;;;;;29.59;35.21;100293.81;5130456;28;20035;-71
2021/08/11 10:20:05;;;;;;;5.32;3.00;;;;;;;29.63;34.82;100295.09;5130873;28;20126;-70
2021/08/11 10:22:33;;;;;;;5.47;2.78;;;;;;;29.62;35.63;100296.13;5112308;28;20066;-70
2021/08/11 10:25:03;;;;;;;5.80;2.80;;;;;;;29.70;35.04;100285.94;5111906;28;20039;-70
2021/08/11 10:27:33;;;;;;;5.63;2.67;;;;;;;29.89;35.26;100294.13;5130197;28;20039;-70
2021/08/11 10:30:02;;;;;;;3.80;2.53;;;;;;;30.01;35.13;100285.19;5130278;28;20047;-70
2021/08/11 10:32:32;;;;;;;5.35;3.35;;;;;;;30.10;35.40;100284.75;5129798;27;20112;-70
2021/08/11 10:35:02;;;;;;;4.15;2.60;;;;;;;29.96;34.39;100283.13;5130472;28;20101;-72
2021/08/11 10:37:35;;;;;;;4.75;2.97;;;;;;;30.03;34.54;100283.94;5130017;28;20404;-72
2021/08/11 10:40:06;;;;;;;4.60;3.05;;;;;;;30.08;34.78;100295.16;5130204;28;20046;-70
2021/08/11 10:42:34;;;;;;;6.20;2.70;;;;;;;29.79;34.85;100301.16;5129744;28;20044;-72
2021/08/11 10:45:04;;;;;;;4.65;3.03;;;;;;;29.71;35.57;100293.13;5117887;28;20044;-72
2021/08/11 10:47:34;;;;;;;4.57;2.97;;;;;;;29.98;35.77;100303.00;5116041;28;20480;-72
2021/08/11 10:50:04;;;;;;;6.50;3.38;;;;;;;29.87;35.66;100300.91;5116207;28;20047;-72
2021/08/11 10:52:34;;;;;;;6.28;3.05;;;;;;;29.71;35.50;100298.63;5116211;28;20048;-72
2021/08/11 10:55:04;;;;;;;4.97;3.03;;;;;;;30.02;35.43;100287.75;5097653;28;20071;-72
2021/08/11 10:57:46;;;;;;;5.45;3.10;;;;;;;30.04;35.81;100295.78;5115934;28;20135;-72
2021/08/11 11:00:42;;;;;;;4.80;2.90;;;;;;;29.93;36.91;100284.41;5116391;28;20040;-71
2021/08/11 11:03:11;;;;;;;6.93;3.10;;;;;;;29.84;37.38;100295.88;5106741;28;20083;-72
2021/08/11 11:06:01;;;;;;;8.27;3.05;;;;;;;29.91;38.00;100296.66;5115667;28;20047;-71
2021/08/11 11:08:35;;;;;;;4.72;3.22;;;;;;;30.10;37.32;100290.25;5115908;28;20070;-72
2021/08/11 11:11:38;;;;;;;6.30;3.10;;;;;;;29.88;37.12;100294.34;5115767;28;20048;-71
2021/08/11 11:14:28;;;;;;;8.75;3.15;;;;;;;30.05;37.46;100286.47;5115945;28;20040;-72
2021/08/11 11:17:09;;;;;;;7.45;3.13;;;;;;;30.05;37.22;100284.56;5115829;28;20484;-71
2021/08/11 11:20:27;;;;;;;5.13;3.17;;;;;;;29.96;37.19;100299.63;5115459;28;20047;-71
2021/08/11 11:23:00;;;;;;;7.07;3.08;;;;;;;29.92;36.68;100303.88;5115829;28;20492;-71
2021/08/11 11:26:07;;;;;;;5.10;3.30;;;;;;;29.70;36.75;100299.69;5115506;28;20051;-72
2021/08/11 11:28:56;;;;;;;5.45;3.15;;;;;;;29.62;37.24;100290.63;5115021;28;20039;-72
2021/08/11 11:31:39;;;;;;;5.13;2.83;;;;;;;29.80;37.47;100289.09;5115560;28;20039;-71
2021/08/11 11:34:32;;;;;;;4.85;2.92;;;;;;;30.03;37.31;100283.94;5115518;28;20503;-72
2021/08/11 11:37:26;;;;;;;6.00;3.28;;;;;;;30.09;36.92;100287.72;5115377;28;20043;-72
2021/08/11 11:40:06;;;;;;;;;;;;;;;30.11;37.25;100291.97;5106891;28;20046;-72
2021/08/11 11:42:34;;;;;;;5.72;3.10;;;;;;;30.05;37.21;100290.06;5115075;28;19920;-71